sensor_id;sensor_type;location;lat;lon;timestamp;P1;durP1;ratioP1;P2;durP2;ratioP2
41514;SDS011;27247;48.020;16.720;2022-11-27T00:00:32;21.15;;;10.68;;
41514;SDS011;27247;48.020;16.720;2022-11-27T00:04:42;19.90;;;10.73;;
41514;SDS011;27247;48.020;16.720;2022-11-27T00:08:54;19.90;;;10.57;;
41514;SDS011;27247;48.020;16.720;2022-11-27T00:13:05;22.35;;;11.75;;
41514;SDS011;27247;48.020;16.720;2022-11-27T00:17:15;16.60;;;11.17;;
41514;SDS011;27247;48.020;16.720;2022-11-27T00:21:27;20.60;;;10.43;;
41514;SDS011;27247;48.020;16.720;2022-11-27T00:25:39;25.92;;;11.70;;
41514;SDS011;27247;48.020;16.720;2022-11-27T00:29:49;22.65;;;11.23;;
41514;SDS011;27247;48.020;16.720;2022-11-27T00:34:01;21.50;;;10.90;;
41514;SDS011;27247;48.020;16.720;2022-11-27T00:38:12;21.33;;;11.07;;
41514;SDS011;27247;48.020;16.720;2022-11-27T00:42:23;15.13;;;9.80;;
41514;SDS011;27247;48.020;16.720;2022-11-27T00:46:34;18.30;;;10.70;;
41514;SDS011;27247;48.020;16.720;2022-11-27T00:50:44;19.67;;;12.25;;
41514;SDS011;27247;48.020;16.720;2022-11-27T00:54:55;18.70;;;11.95;;
41514;SDS011;27247;48.020;16.720;2022-11-27T00:59:06;16.20;;;10.73;;
41514;SDS011;27247;48.020;16.720;2022-11-27T01:03:17;18.52;;;10.25;;
41514;SDS011;27247;48.020;16.720;2022-11-27T01:07:27;19.93;;;10.53;;
41514;SDS011;27247;48.020;16.720;2022-11-27T01:11:38;23.40;;;11.10;;
41514;SDS011;27247;48.020;16.720;2022-11-27T01:20:13;34.83;;;17.52;;
41514;SDS011;27247;48.020;16.720;2022-11-27T01:24:23;26.42;;;15.93;;
41514;SDS011;27247;48.020;16.720;2022-11-27T01:28:34;37.17;;;14.98;;
41514;SDS011;27247;48.020;16.720;2022-11-27T01:32:45;30.33;;;15.27;;
41514;SDS011;27247;48.020;16.720;2022-11-27T01:36:56;33.07;;;16.07;;
41514;SDS011;27247;48.020;16.720;2022-11-27T01:41:07;26.00;;;14.30;;
41514;SDS011;27247;48.020;16.720;2022-11-27T01:45:23;35.38;;;15.85;;
41514;SDS011;27247;48.020;16.720;2022-11-27T01:49:41;25.10;;;13.63;;
41514;SDS011;27247;48.020;16.720;2022-11-27T01:53:56;24.52;;;12.38;;
41514;SDS011;27247;48.020;16.720;2022-11-27T01:58:08;26.85;;;12.35;;
41514;SDS011;27247;48.020;16.720;2022-11-27T02:02:21;24.92;;;14.82;;
41514;SDS011;27247;48.020;16.720;2022-11-27T02:06:31;22.20;;;11.93;;
41514;SDS011;27247;48.020;16.720;2022-11-27T02:10:46;21.52;;;11.38;;
41514;SDS011;27247;48.020;16.720;2022-11-27T02:32:59;19.98;;;11.10;;
41514;SDS011;27247;48.020;16.720;2022-11-27T02:41:32;19.20;;;11.25;;
41514;SDS011;27247;48.020;16.720;2022-11-27T02:45:50;23.83;;;12.13;;
41514;SDS011;27247;48.020;16.720;2022-11-27T02:50:01;19.67;;;11.18;;
41514;SDS011;27247;48.020;16.720;2022-11-27T02:54:14;24.65;;;11.55;;
41514;SDS011;27247;48.020;16.720;2022-11-27T02:58:30;29.83;;;11.25;;
41514;SDS011;27247;48.020;16.720;2022-11-27T03:02:42;23.92;;;11.77;;
41514;SDS011;27247;48.020;16.720;2022-11-27T03:07:00;23.85;;;11.80;;
41514;SDS011;27247;48.020;16.720;2022-11-27T03:11:17;23.30;;;10.57;;
41514;SDS011;27247;48.020;16.720;2022-11-27T03:15:28;21.15;;;10.75;;
41514;SDS011;27247;48.020;16.720;2022-11-27T03:19:52;19.48;;;10.43;;
41514;SDS011;27247;48.020;16.720;2022-11-27T03:24:06;17.40;;;8.85;;
41514;SDS011;27247;48.020;16.720;2022-11-27T03:28:18;20.13;;;10.40;;
41514;SDS011;27247;48.020;16.720;2022-11-27T03:32:30;17.08;;;9.60;;
41514;SDS011;27247;48.020;16.720;2022-11-27T03:36:42;19.67;;;11.00;;
41514;SDS011;27247;48.020;16.720;2022-11-27T03:45:21;28.10;;;11.85;;
41514;SDS011;27247;48.020;16.720;2022-11-27T03:59:09;19.60;;;11.30;;
41514;SDS011;27247;48.020;16.720;2022-11-27T04:03:26;19.98;;;10.77;;
41514;SDS011;27247;48.020;16.720;2022-11-27T04:07:37;23.08;;;11.73;;
41514;SDS011;27247;48.020;16.720;2022-11-27T04:11:48;26.00;;;12.98;;
41514;SDS011;27247;48.020;16.720;2022-11-27T04:15:59;24.23;;;11.13;;
41514;SDS011;27247;48.020;16.720;2022-11-27T04:20:11;20.10;;;9.98;;
41514;SDS011;27247;48.020;16.720;2022-11-27T04:24:23;20.08;;;10.50;;
41514;SDS011;27247;48.020;16.720;2022-11-27T04:28:33;17.33;;;9.77;;
41514;SDS011;27247;48.020;16.720;2022-11-27T04:32:44;15.50;;;8.98;;
41514;SDS011;27247;48.020;16.720;2022-11-27T04:36:54;20.60;;;10.27;;
41514;SDS011;27247;48.020;16.720;2022-11-27T04:41:04;18.80;;;9.80;;
41514;SDS011;27247;48.020;16.720;2022-11-27T04:45:15;21.77;;;11.25;;
41514;SDS011;27247;48.020;16.720;2022-11-27T04:49:25;20.00;;;10.77;;
41514;SDS011;27247;48.020;16.720;2022-11-27T04:53:35;17.57;;;10.17;;
41514;SDS011;27247;48.020;16.720;2022-11-27T04:57:46;20.90;;;10.38;;
41514;SDS011;27247;48.020;16.720;2022-11-27T05:01:57;22.47;;;10.00;;
41514;SDS011;27247;48.020;16.720;2022-11-27T05:06:07;16.05;;;9.27;;
41514;SDS011;27247;48.020;16.720;2022-11-27T05:10:18;19.65;;;10.45;;
41514;SDS011;27247;48.020;16.720;2022-11-27T05:14:28;22.38;;;9.95;;
41514;SDS011;27247;48.020;16.720;2022-11-27T05:18:38;23.48;;;11.93;;
41514;SDS011;27247;48.020;16.720;2022-11-27T05:22:49;35.97;;;18.10;;
41514;SDS011;27247;48.020;16.720;2022-11-27T05:26:59;27.40;;;14.80;;
41514;SDS011;27247;48.020;16.720;2022-11-27T05:31:09;33.42;;;16.33;;
41514;SDS011;27247;48.020;16.720;2022-11-27T05:35:20;31.83;;;15.67;;
41514;SDS011;27247;48.020;16.720;2022-11-27T05:39:30;39.33;;;17.87;;
41514;SDS011;27247;48.020;16.720;2022-11-27T05:43:40;34.90;;;15.60;;
41514;SDS011;27247;48.020;16.720;2022-11-27T05:47:51;33.13;;;15.55;;
41514;SDS011;27247;48.020;16.720;2022-11-27T05:52:01;30.38;;;14.73;;
41514;SDS011;27247;48.020;16.720;2022-11-27T05:56:12;33.75;;;14.90;;
41514;SDS011;27247;48.020;16.720;2022-11-27T06:00:24;34.20;;;16.17;;
41514;SDS011;27247;48.020;16.720;2022-11-27T06:04:36;29.67;;;15.60;;
41514;SDS011;27247;48.020;16.720;2022-11-27T06:08:46;29.87;;;15.00;;
41514;SDS011;27247;48.020;16.720;2022-11-27T06:12:57;31.85;;;16.13;;
41514;SDS011;27247;48.020;16.720;2022-11-27T06:17:07;28.83;;;15.48;;
41514;SDS011;27247;48.020;16.720;2022-11-27T06:21:18;29.07;;;15.60;;
41514;SDS011;27247;48.020;16.720;2022-11-27T06:25:29;34.30;;;15.75;;
41514;SDS011;27247;48.020;16.720;2022-11-27T06:29:39;31.85;;;14.73;;
41514;SDS011;27247;48.020;16.720;2022-11-27T06:33:50;26.95;;;14.05;;
41514;SDS011;27247;48.020;16.720;2022-11-27T06:38:01;29.20;;;13.30;;
41514;SDS011;27247;48.020;16.720;2022-11-27T06:42:12;29.07;;;15.57;;
41514;SDS011;27247;48.020;16.720;2022-11-27T06:46:22;42.30;;;17.67;;
41514;SDS011;27247;48.020;16.720;2022-11-27T06:50:33;32.03;;;16.73;;
41514;SDS011;27247;48.020;16.720;2022-11-27T06:54:43;32.83;;;17.07;;
41514;SDS011;27247;48.020;16.720;2022-11-27T06:58:54;43.63;;;21.23;;
41514;SDS011;27247;48.020;16.720;2022-11-27T07:03:06;56.55;;;23.92;;
41514;SDS011;27247;48.020;16.720;2022-11-27T07:07:16;37.38;;;18.23;;
41514;SDS011;27247;48.020;16.720;2022-11-27T07:11:27;29.83;;;14.53;;
41514;SDS011;27247;48.020;16.720;2022-11-27T07:15:39;27.92;;;14.98;;
41514;SDS011;27247;48.020;16.720;2022-11-27T07:19:49;30.07;;;14.57;;
41514;SDS011;27247;48.020;16.720;2022-11-27T07:23:59;33.92;;;15.20;;
41514;SDS011;27247;48.020;16.720;2022-11-27T07:28:10;24.27;;;14.13;;
41514;SDS011;27247;48.020;16.720;2022-11-27T07:32:21;35.20;;;19.50;;
41514;SDS011;27247;48.020;16.720;2022-11-27T07:36:31;32.05;;;17.63;;
41514;SDS011;27247;48.020;16.720;2022-11-27T07:40:41;31.85;;;15.57;;
41514;SDS011;27247;48.020;16.720;2022-11-27T07:44:52;34.35;;;17.13;;
41514;SDS011;27247;48.020;16.720;2022-11-27T07:49:02;33.00;;;18.70;;
41514;SDS011;27247;48.020;16.720;2022-11-27T07:53:12;34.78;;;18.08;;
41514;SDS011;27247;48.020;16.720;2022-11-27T07:57:23;42.53;;;21.83;;
41514;SDS011;27247;48.020;16.720;2022-11-27T08:01:33;39.08;;;20.75;;
41514;SDS011;27247;48.020;16.720;2022-11-27T08:05:43;40.17;;;21.00;;
41514;SDS011;27247;48.020;16.720;2022-11-27T08:09:54;44.00;;;23.60;;
41514;SDS011;27247;48.020;16.720;2022-11-27T08:14:07;45.10;;;21.25;;
41514;SDS011;27247;48.020;16.720;2022-11-27T08:18:25;47.23;;;20.97;;
41514;SDS011;27247;48.020;16.720;2022-11-27T08:22:36;43.20;;;21.10;;
41514;SDS011;27247;48.020;16.720;2022-11-27T08:26:46;36.60;;;19.60;;
41514;SDS011;27247;48.020;16.720;2022-11-27T08:30:57;36.70;;;20.07;;
41514;SDS011;27247;48.020;16.720;2022-11-27T08:35:09;38.65;;;20.40;;
41514;SDS011;27247;48.020;16.720;2022-11-27T08:39:19;39.03;;;21.48;;
41514;SDS011;27247;48.020;16.720;2022-11-27T08:43:30;47.67;;;22.60;;
41514;SDS011;27247;48.020;16.720;2022-11-27T08:47:41;45.15;;;22.02;;
41514;SDS011;27247;48.020;16.720;2022-11-27T08:51:52;39.17;;;21.08;;
41514;SDS011;27247;48.020;16.720;2022-11-27T08:56:06;36.97;;;19.83;;
41514;SDS011;27247;48.020;16.720;2022-11-27T09:00:18;37.30;;;19.05;;
41514;SDS011;27247;48.020;16.720;2022-11-27T09:04:29;41.53;;;21.45;;
41514;SDS011;27247;48.020;16.720;2022-11-27T09:08:40;35.97;;;19.38;;
41514;SDS011;27247;48.020;16.720;2022-11-27T09:12:52;37.17;;;19.88;;
41514;SDS011;27247;48.020;16.720;2022-11-27T09:17:05;35.80;;;18.80;;
41514;SDS011;27247;48.020;16.720;2022-11-27T09:21:16;38.03;;;18.80;;
41514;SDS011;27247;48.020;16.720;2022-11-27T09:25:28;33.85;;;18.15;;
41514;SDS011;27247;48.020;16.720;2022-11-27T09:29:38;27.42;;;15.63;;
41514;SDS011;27247;48.020;16.720;2022-11-27T09:33:48;28.38;;;14.80;;
41514;SDS011;27247;48.020;16.720;2022-11-27T09:37:59;28.55;;;15.45;;
41514;SDS011;27247;48.020;16.720;2022-11-27T09:42:15;23.95;;;14.85;;
41514;SDS011;27247;48.020;16.720;2022-11-27T09:46:40;28.90;;;14.90;;
41514;SDS011;27247;48.020;16.720;2022-11-27T09:50:52;29.08;;;14.38;;
41514;SDS011;27247;48.020;16.720;2022-11-27T09:55:12;24.65;;;14.18;;
41514;SDS011;27247;48.020;16.720;2022-11-27T09:59:38;28.33;;;13.90;;
41514;SDS011;27247;48.020;16.720;2022-11-27T10:03:54;25.77;;;13.57;;
41514;SDS011;27247;48.020;16.720;2022-11-27T10:12:36;26.48;;;13.82;;
41514;SDS011;27247;48.020;16.720;2022-11-27T10:22:08;26.08;;;13.57;;
41514;SDS011;27247;48.020;16.720;2022-11-27T10:26:35;22.88;;;12.88;;
41514;SDS011;27247;48.020;16.720;2022-11-27T10:30:51;38.22;;;17.23;;
41514;SDS011;27247;48.020;16.720;2022-11-27T10:35:11;27.35;;;12.32;;
41514;SDS011;27247;48.020;16.720;2022-11-27T10:39:31;25.85;;;13.63;;
41514;SDS011;27247;48.020;16.720;2022-11-27T10:43:46;26.33;;;12.50;;
41514;SDS011;27247;48.020;16.720;2022-11-27T10:48:03;26.70;;;12.98;;
41514;SDS011;27247;48.020;16.720;2022-11-27T10:52:15;17.67;;;11.20;;
41514;SDS011;27247;48.020;16.720;2022-11-27T11:01:06;21.90;;;11.43;;
41514;SDS011;27247;48.020;16.720;2022-11-27T11:05:23;27.02;;;12.60;;
41514;SDS011;27247;48.020;16.720;2022-11-27T11:09:35;20.60;;;11.05;;
41514;SDS011;27247;48.020;16.720;2022-11-27T11:13:45;17.80;;;10.32;;
41514;SDS011;27247;48.020;16.720;2022-11-27T11:17:56;20.13;;;10.32;;
41514;SDS011;27247;48.020;16.720;2022-11-27T11:22:11;16.10;;;8.97;;
41514;SDS011;27247;48.020;16.720;2022-11-27T11:26:27;20.92;;;9.30;;
41514;SDS011;27247;48.020;16.720;2022-11-27T11:30:40;19.25;;;9.55;;
41514;SDS011;27247;48.020;16.720;2022-11-27T11:34:58;16.70;;;9.30;;
41514;SDS011;27247;48.020;16.720;2022-11-27T11:39:23;17.65;;;10.27;;
41514;SDS011;27247;48.020;16.720;2022-11-27T11:43:36;19.75;;;9.30;;
41514;SDS011;27247;48.020;16.720;2022-11-27T11:47:51;20.85;;;10.13;;
41514;SDS011;27247;48.020;16.720;2022-11-27T11:52:11;17.02;;;8.30;;
41514;SDS011;27247;48.020;16.720;2022-11-27T11:56:31;15.13;;;8.40;;
41514;SDS011;27247;48.020;16.720;2022-11-27T12:00:47;13.80;;;7.88;;
41514;SDS011;27247;48.020;16.720;2022-11-27T12:05:05;15.57;;;8.75;;
41514;SDS011;27247;48.020;16.720;2022-11-27T12:09:47;21.85;;;9.05;;
41514;SDS011;27247;48.020;16.720;2022-11-27T12:31:29;15.65;;;7.20;;
41514;SDS011;27247;48.020;16.720;2022-11-27T12:49:43;11.23;;;5.70;;
41514;SDS011;27247;48.020;16.720;2022-11-27T12:53:59;11.88;;;4.80;;
41514;SDS011;27247;48.020;16.720;2022-11-27T12:58:34;12.20;;;5.18;;
41514;SDS011;27247;48.020;16.720;2022-11-27T13:07:07;11.88;;;4.97;;
41514;SDS011;27247;48.020;16.720;2022-11-27T13:11:29;10.32;;;6.53;;
41514;SDS011;27247;48.020;16.720;2022-11-27T13:20:02;8.57;;;4.53;;
41514;SDS011;27247;48.020;16.720;2022-11-27T13:24:13;13.50;;;7.55;;
41514;SDS011;27247;48.020;16.720;2022-11-27T13:28:26;9.23;;;5.53;;
41514;SDS011;27247;48.020;16.720;2022-11-27T13:32:51;15.82;;;8.13;;
41514;SDS011;27247;48.020;16.720;2022-11-27T13:37:05;14.05;;;5.50;;
41514;SDS011;27247;48.020;16.720;2022-11-27T13:41:20;8.88;;;4.38;;
41514;SDS011;27247;48.020;16.720;2022-11-27T13:45:34;7.70;;;4.60;;
41514;SDS011;27247;48.020;16.720;2022-11-27T13:49:55;6.93;;;4.18;;
41514;SDS011;27247;48.020;16.720;2022-11-27T13:54:15;8.35;;;4.43;;
41514;SDS011;27247;48.020;16.720;2022-11-27T14:02:48;7.33;;;4.13;;
41514;SDS011;27247;48.020;16.720;2022-11-27T14:07:07;10.45;;;4.68;;
41514;SDS011;27247;48.020;16.720;2022-11-27T14:11:31;7.82;;;4.40;;
41514;SDS011;27247;48.020;16.720;2022-11-27T14:15:42;7.70;;;4.35;;
41514;SDS011;27247;48.020;16.720;2022-11-27T14:20:01;11.05;;;4.43;;
41514;SDS011;27247;48.020;16.720;2022-11-27T14:28:56;12.93;;;6.10;;
41514;SDS011;27247;48.020;16.720;2022-11-27T14:33:19;13.48;;;5.47;;
41514;SDS011;27247;48.020;16.720;2022-11-27T14:37:32;10.65;;;5.00;;
41514;SDS011;27247;48.020;16.720;2022-11-27T14:41:42;12.38;;;7.05;;
41514;SDS011;27247;48.020;16.720;2022-11-27T14:45:57;12.52;;;5.88;;
41514;SDS011;27247;48.020;16.720;2022-11-27T14:50:11;14.35;;;6.80;;
41514;SDS011;27247;48.020;16.720;2022-11-27T14:54:24;14.23;;;6.60;;
41514;SDS011;27247;48.020;16.720;2022-11-27T14:58:43;9.73;;;6.13;;
41514;SDS011;27247;48.020;16.720;2022-11-27T15:03:08;10.57;;;6.15;;
41514;SDS011;27247;48.020;16.720;2022-11-27T15:07:20;16.55;;;7.15;;
41514;SDS011;27247;48.020;16.720;2022-11-27T15:11:34;13.45;;;5.80;;
41514;SDS011;27247;48.020;16.720;2022-11-27T15:15:44;10.98;;;6.32;;
41514;SDS011;27247;48.020;16.720;2022-11-27T15:20:13;9.90;;;6.60;;
41514;SDS011;27247;48.020;16.720;2022-11-27T15:24:28;13.02;;;6.50;;
41514;SDS011;27247;48.020;16.720;2022-11-27T15:28:53;11.68;;;7.35;;
41514;SDS011;27247;48.020;16.720;2022-11-27T15:33:21;15.52;;;8.90;;
41514;SDS011;27247;48.020;16.720;2022-11-27T15:37:36;25.13;;;12.38;;
41514;SDS011;27247;48.020;16.720;2022-11-27T15:41:48;22.08;;;11.23;;
41514;SDS011;27247;48.020;16.720;2022-11-27T15:50:20;20.73;;;10.43;;
41514;SDS011;27247;48.020;16.720;2022-11-27T15:54:30;23.20;;;11.23;;
41514;SDS011;27247;48.020;16.720;2022-11-27T15:58:41;22.05;;;10.82;;
41514;SDS011;27247;48.020;16.720;2022-11-27T16:02:53;15.32;;;10.13;;
41514;SDS011;27247;48.020;16.720;2022-11-27T16:07:03;13.32;;;7.68;;
41514;SDS011;27247;48.020;16.720;2022-11-27T16:11:14;9.32;;;6.03;;
41514;SDS011;27247;48.020;16.720;2022-11-27T16:15:28;13.55;;;6.90;;
41514;SDS011;27247;48.020;16.720;2022-11-27T16:19:39;12.07;;;6.28;;
41514;SDS011;27247;48.020;16.720;2022-11-27T16:23:49;63.30;;;25.25;;
41514;SDS011;27247;48.020;16.720;2022-11-27T16:28:00;68.22;;;27.67;;
41514;SDS011;27247;48.020;16.720;2022-11-27T16:32:11;38.08;;;18.00;;
41514;SDS011;27247;48.020;16.720;2022-11-27T16:36:21;32.33;;;11.65;;
41514;SDS011;27247;48.020;16.720;2022-11-27T16:40:32;31.45;;;13.25;;
41514;SDS011;27247;48.020;16.720;2022-11-27T16:44:43;21.50;;;9.57;;
41514;SDS011;27247;48.020;16.720;2022-11-27T16:48:55;23.88;;;10.55;;
41514;SDS011;27247;48.020;16.720;2022-11-27T16:53:08;14.48;;;6.78;;
41514;SDS011;27247;48.020;16.720;2022-11-27T16:57:18;10.48;;;5.65;;
41514;SDS011;27247;48.020;16.720;2022-11-27T17:01:32;12.07;;;5.65;;
41514;SDS011;27247;48.020;16.720;2022-11-27T17:05:44;8.85;;;4.90;;
41514;SDS011;27247;48.020;16.720;2022-11-27T17:09:55;11.57;;;5.55;;
41514;SDS011;27247;48.020;16.720;2022-11-27T17:14:06;28.80;;;12.70;;
41514;SDS011;27247;48.020;16.720;2022-11-27T17:18:18;39.03;;;19.50;;
41514;SDS011;27247;48.020;16.720;2022-11-27T17:22:30;47.15;;;21.63;;
41514;SDS011;27247;48.020;16.720;2022-11-27T17:26:41;48.83;;;23.00;;
41514;SDS011;27247;48.020;16.720;2022-11-27T17:30:52;78.93;;;25.15;;
41514;SDS011;27247;48.020;16.720;2022-11-27T17:35:03;50.08;;;22.23;;
41514;SDS011;27247;48.020;16.720;2022-11-27T17:39:14;56.47;;;24.17;;
41514;SDS011;27247;48.020;16.720;2022-11-27T17:43:24;55.25;;;25.38;;
41514;SDS011;27247;48.020;16.720;2022-11-27T17:47:37;53.25;;;22.50;;
41514;SDS011;27247;48.020;16.720;2022-11-27T17:51:49;72.60;;;22.30;;
41514;SDS011;27247;48.020;16.720;2022-11-27T17:56:03;59.22;;;24.40;;
41514;SDS011;27247;48.020;16.720;2022-11-27T18:00:18;61.75;;;23.38;;
41514;SDS011;27247;48.020;16.720;2022-11-27T18:04:29;60.10;;;23.52;;
41514;SDS011;27247;48.020;16.720;2022-11-27T18:08:42;70.88;;;22.80;;
41514;SDS011;27247;48.020;16.720;2022-11-27T18:12:54;54.25;;;20.58;;
41514;SDS011;27247;48.020;16.720;2022-11-27T18:17:04;60.08;;;21.88;;
41514;SDS011;27247;48.020;16.720;2022-11-27T18:21:17;57.60;;;22.27;;
41514;SDS011;27247;48.020;16.720;2022-11-27T18:25:28;66.43;;;22.02;;
41514;SDS011;27247;48.020;16.720;2022-11-27T18:29:40;71.68;;;23.63;;
41514;SDS011;27247;48.020;16.720;2022-11-27T18:33:54;60.95;;;21.67;;
41514;SDS011;27247;48.020;16.720;2022-11-27T18:38:06;105.43;;;24.83;;
41514;SDS011;27247;48.020;16.720;2022-11-27T18:42:17;64.10;;;22.27;;
41514;SDS011;27247;48.020;16.720;2022-11-27T18:46:27;82.93;;;25.35;;
41514;SDS011;27247;48.020;16.720;2022-11-27T18:50:38;85.18;;;24.92;;
41514;SDS011;27247;48.020;16.720;2022-11-27T18:54:49;72.00;;;25.27;;
41514;SDS011;27247;48.020;16.720;2022-11-27T18:59:00;69.85;;;25.25;;
41514;SDS011;27247;48.020;16.720;2022-11-27T19:03:12;114.32;;;31.05;;
41514;SDS011;27247;48.020;16.720;2022-11-27T19:07:25;91.68;;;26.75;;
41514;SDS011;27247;48.020;16.720;2022-11-27T19:11:37;94.13;;;25.52;;
41514;SDS011;27247;48.020;16.720;2022-11-27T19:15:49;103.88;;;27.67;;
41514;SDS011;27247;48.020;16.720;2022-11-27T19:20:01;75.40;;;27.25;;
41514;SDS011;27247;48.020;16.720;2022-11-27T19:24:14;103.68;;;28.08;;
41514;SDS011;27247;48.020;16.720;2022-11-27T19:28:26;106.20;;;28.48;;
41514;SDS011;27247;48.020;16.720;2022-11-27T19:32:36;77.30;;;25.80;;
41514;SDS011;27247;48.020;16.720;2022-11-27T19:36:48;120.60;;;29.40;;
41514;SDS011;27247;48.020;16.720;2022-11-27T19:40:59;76.70;;;27.60;;
41514;SDS011;27247;48.020;16.720;2022-11-27T19:45:10;118.50;;;31.58;;
41514;SDS011;27247;48.020;16.720;2022-11-27T19:49:21;150.20;;;33.03;;
41514;SDS011;27247;48.020;16.720;2022-11-27T19:53:32;73.45;;;27.25;;
41514;SDS011;27247;48.020;16.720;2022-11-27T19:57:43;116.45;;;30.58;;
41514;SDS011;27247;48.020;16.720;2022-11-27T20:01:54;123.53;;;32.92;;
41514;SDS011;27247;48.020;16.720;2022-11-27T20:06:06;113.95;;;31.85;;
41514;SDS011;27247;48.020;16.720;2022-11-27T20:10:25;111.60;;;32.63;;
41514;SDS011;27247;48.020;16.720;2022-11-27T20:14:35;167.05;;;34.38;;
41514;SDS011;27247;48.020;16.720;2022-11-27T20:18:48;134.00;;;35.83;;
41514;SDS011;27247;48.020;16.720;2022-11-27T20:22:59;143.27;;;35.63;;
41514;SDS011;27247;48.020;16.720;2022-11-27T20:27:10;98.72;;;31.15;;
41514;SDS011;27247;48.020;16.720;2022-11-27T20:31:25;117.72;;;34.00;;
41514;SDS011;27247;48.020;16.720;2022-11-27T20:35:40;99.53;;;31.45;;
41514;SDS011;27247;48.020;16.720;2022-11-27T20:39:51;171.43;;;36.85;;
41514;SDS011;27247;48.020;16.720;2022-11-27T20:44:02;155.23;;;34.10;;
41514;SDS011;27247;48.020;16.720;2022-11-27T20:48:13;123.60;;;34.30;;
41514;SDS011;27247;48.020;16.720;2022-11-27T20:52:24;131.02;;;33.72;;
41514;SDS011;27247;48.020;16.720;2022-11-27T20:56:35;121.70;;;36.15;;
41514;SDS011;27247;48.020;16.720;2022-11-27T21:00:46;92.63;;;32.67;;
41514;SDS011;27247;48.020;16.720;2022-11-27T21:04:57;93.93;;;31.13;;
41514;SDS011;27247;48.020;16.720;2022-11-27T21:09:07;126.30;;;33.30;;
41514;SDS011;27247;48.020;16.720;2022-11-27T21:13:18;103.10;;;34.90;;
41514;SDS011;27247;48.020;16.720;2022-11-27T21:17:28;96.22;;;35.47;;
41514;SDS011;27247;48.020;16.720;2022-11-27T21:21:40;85.10;;;33.67;;
41514;SDS011;27247;48.020;16.720;2022-11-27T21:25:50;93.10;;;35.47;;
41514;SDS011;27247;48.020;16.720;2022-11-27T21:30:01;92.97;;;35.80;;
41514;SDS011;27247;48.020;16.720;2022-11-27T21:34:12;95.85;;;35.92;;
41514;SDS011;27247;48.020;16.720;2022-11-27T21:38:23;95.55;;;36.20;;
41514;SDS011;27247;48.020;16.720;2022-11-27T21:42:33;92.72;;;35.33;;
41514;SDS011;27247;48.020;16.720;2022-11-27T21:46:44;102.55;;;36.97;;
41514;SDS011;27247;48.020;16.720;2022-11-27T21:51:01;91.78;;;38.25;;
41514;SDS011;27247;48.020;16.720;2022-11-27T21:55:13;93.97;;;38.97;;
41514;SDS011;27247;48.020;16.720;2022-11-27T21:59:23;96.23;;;38.27;;
41514;SDS011;27247;48.020;16.720;2022-11-27T22:03:34;90.63;;;38.03;;
41514;SDS011;27247;48.020;16.720;2022-11-27T22:07:44;96.35;;;39.55;;
41514;SDS011;27247;48.020;16.720;2022-11-27T22:11:54;91.95;;;37.88;;
41514;SDS011;27247;48.020;16.720;2022-11-27T22:16:15;94.40;;;37.53;;
41514;SDS011;27247;48.020;16.720;2022-11-27T22:20:27;96.63;;;39.58;;
41514;SDS011;27247;48.020;16.720;2022-11-27T22:24:38;90.80;;;38.50;;
41514;SDS011;27247;48.020;16.720;2022-11-27T22:28:48;91.13;;;40.50;;
41514;SDS011;27247;48.020;16.720;2022-11-27T22:32:59;93.15;;;39.38;;
41514;SDS011;27247;48.020;16.720;2022-11-27T22:37:09;95.72;;;39.63;;
41514;SDS011;27247;48.020;16.720;2022-11-27T22:41:21;90.00;;;37.72;;
41514;SDS011;27247;48.020;16.720;2022-11-27T22:45:36;91.85;;;39.40;;
41514;SDS011;27247;48.020;16.720;2022-11-27T22:49:48;92.60;;;38.83;;
41514;SDS011;27247;48.020;16.720;2022-11-27T22:53:59;97.72;;;38.28;;
41514;SDS011;27247;48.020;16.720;2022-11-27T22:58:10;98.47;;;39.70;;
41514;SDS011;27247;48.020;16.720;2022-11-27T23:02:20;99.15;;;39.40;;
41514;SDS011;27247;48.020;16.720;2022-11-27T23:06:31;96.05;;;39.92;;
41514;SDS011;27247;48.020;16.720;2022-11-27T23:10:41;96.38;;;42.05;;
41514;SDS011;27247;48.020;16.720;2022-11-27T23:14:52;99.00;;;41.20;;
41514;SDS011;27247;48.020;16.720;2022-11-27T23:19:02;101.30;;;40.20;;
41514;SDS011;27247;48.020;16.720;2022-11-27T23:23:12;101.82;;;41.22;;
41514;SDS011;27247;48.020;16.720;2022-11-27T23:27:23;99.20;;;40.33;;
41514;SDS011;27247;48.020;16.720;2022-11-27T23:31:33;98.35;;;39.75;;
41514;SDS011;27247;48.020;16.720;2022-11-27T23:35:45;102.65;;;41.28;;
41514;SDS011;27247;48.020;16.720;2022-11-27T23:39:55;97.27;;;39.07;;
41514;SDS011;27247;48.020;16.720;2022-11-27T23:44:05;96.35;;;40.03;;
41514;SDS011;27247;48.020;16.720;2022-11-27T23:48:15;92.05;;;39.35;;
41514;SDS011;27247;48.020;16.720;2022-11-27T23:52:26;102.07;;;41.17;;
41514;SDS011;27247;48.020;16.720;2022-11-27T23:56:36;102.40;;;39.97;;
